Meteo Giornale » Osservazioni meteo Svezia » Stockholm-Arlanda

ore: 00:50 - Osservazioni Meteo Stockholm-Arlanda
Lat. 59° 39' N Lon. 17° 57' E Alt. 38 metri s.l.m.

sereno Europe/Stockholm

-5 °C

Sereno

Temp. 24 Ore

-6 °C

3 °C

Ovest

7.4 Km/h

Dew point -7 °C

Umidità 85 %

Visibilità  10 Km

Il sole sorge alle ore 06:31

Il sole tramonta alle ore 17:28

Data e Ora Cielo e Fenomeni T °C DP °C Um. % Pres. hPa Vis. km Vento km/h
Oggi h: 00:50 sereno Sereno -5 -7 85 1015 10 O 7.4
Ieri h: 23:50 sereno Sereno -6 -7 92 1015 10 O 7.4
Ieri h: 23:20 sereno Sereno -5 -7 85 1015 10 O 7.4
Ieri h: 22:50 sereno Sereno -5 -6 92 1015 10 N 3.7
Ieri h: 22:20 sereno Sereno -3 -6 79 1015 10 N 5.5
Ieri h: 21:50 sereno Sereno -4 -6 85 1015 10 N 1.8
Ieri h: 20:50 sereno Sereno -3 -6 79 1015 10 NO 7.4
Ieri h: 19:50 sereno Sereno -3 -5 86 1015 10 N 5.5
Ieri h: 19:20 sereno Sereno -3 -5 86 1015 10 N 3.7
Ieri h: 18:50 sereno Sereno -3 -5 86 1015 10 O/NO 7.4
Ieri h: 18:20 sereno Sereno -3 -6 79 1015 10 O 7.4
Ieri h: 17:50 sereno Sereno -2 -6 73 1015 10 NO 9.3
Ieri h: 17:20 nuvoloso Nuvoloso -1 -5 74 1015 10 N 16.7
Ieri h: 16:50 nuvoloso Nuvoloso -0 -5 68 1015 10 N/NO 9.3
Ieri h: 16:20 nuvoloso Nuvoloso -0 -4 74 1015 10 N 14.8
Ieri h: 15:50 nuvoloso_neve Debole Rovescio di Neve 0 -5 68 1015 8 N 27.8
Ieri h: 15:20 nuvoloso Nuvoloso 3 -8 44 1014 10 N/NO 20.3
Ieri h: 14:50 nuvoloso Nuvoloso 2 -8 47 1014 10 NO 18.5
Ieri h: 14:20 nuvoloso Nuvoloso 2 -7 51 1014 10 N/NO 18.5
Ieri h: 13:50 molto_nuvoloso Molto Nuvoloso 2 -8 47 1014 10 NO 25.9
Ieri h: 13:20 molto_nuvoloso Molto Nuvoloso 2 -7 51 1015 10 N/NO 20.3
Ieri h: 12:50 nuvoloso Nuvoloso 2 -7 51 1015 10 N/NO 16.7
Ieri h: 12:20 nuvoloso Nuvoloso 1 -6 59 1015 10 NO 18.5
Ieri h: 10:50 molto_nuvoloso Molto Nuvoloso -0 -6 63 1015 10 N/NO 16.7
Ieri h: 09:50 molto_nuvoloso Molto Nuvoloso -1 -6 68 1014 10 N/NO 14.8
Ieri h: 09:20 molto_nuvoloso Molto Nuvoloso -1 -7 63 1015 10 N/NO 16.7
Ieri h: 08:50 molto_nuvoloso Molto Nuvoloso -2 -7 68 1014 10 NO 16.7
Ieri h: 08:20 molto_nuvoloso Molto Nuvoloso -2 -7 68 1014 10 NO 16.7
Ieri h: 07:50 molto_nuvoloso Molto Nuvoloso -2 -7 68 1014 10 NO 14.8
Ieri h: 07:20 nuvoloso Nuvoloso -3 -7 73 1014 10 NO 13
Ieri h: 06:50 nuvoloso Nuvoloso -3 -8 68 1014 10 NO 14.8
Ieri h: 06:20 nuvoloso Nuvoloso -3 -8 68 1014 10 NO 11.1
Ieri h: 05:50 sereno Sereno -3 -8 68 1013 10 NO 14.8
Ieri h: 05:20 sereno Sereno -3 -8 68 1013 10 NO 16.7
Ieri h: 04:50 sereno Sereno -2 -8 63 1013 10 NO 11.1
Ieri h: 04:20 sereno Sereno -2 -8 63 1013 10 N/NO 16.7
Ieri h: 03:50 sereno Sereno -2 -8 63 1013 10 N/NO 14.8
Ieri h: 02:50 sereno Sereno -1 -8 58 1013 10 NO 13
Ieri h: 02:20 sereno Sereno -1 -8 58 1014 10 N/NO 18.5
Ieri h: 01:50 sereno Sereno -1 -8 58 1014 10 NO 13
Ieri h: 01:20 sereno Sereno -0 -7 59 1013 10 N/NO 18.5
Ieri h: 00:50 sereno Sereno 1 -7 55 1013 10 N/NO 16.7